createdAt,value
2022-08-28T00:01:23.911Z,509.73
2022-08-28T00:03:50.621Z,511.92
2022-08-28T00:06:18.806Z,514.65
2022-08-28T00:08:46.561Z,533.30
2022-08-28T00:11:21.068Z,520.83
2022-08-28T00:13:48.549Z,529.92
2022-08-28T00:16:15.440Z,530.55
2022-08-28T00:18:42.402Z,531.97
2022-08-28T00:21:10.063Z,535.33
2022-08-28T00:23:42.852Z,536.67
2022-08-28T00:26:31.749Z,529.15
2022-08-28T00:28:58.520Z,527.80
2022-08-28T00:31:25.302Z,532.22
2022-08-28T00:33:52.054Z,528.55
2022-08-28T00:36:19.590Z,528.55
2022-08-28T00:38:46.203Z,529.95
2022-08-28T00:41:13.186Z,529.70
2022-08-28T00:43:43.311Z,527.10
2022-08-28T00:46:14.460Z,529.20
2022-08-28T00:48:41.497Z,527.40
2022-08-28T00:51:28.638Z,524.28
2022-08-28T00:53:58.955Z,523.53
2022-08-28T00:56:27.560Z,522.67
2022-08-28T00:58:56.795Z,523.75
2022-08-28T01:01:24.271Z,521.88
2022-08-28T01:03:51.060Z,519.67
2022-08-28T01:06:20.516Z,522.70
2022-08-28T01:08:50.518Z,526.95
2022-08-28T01:11:21.618Z,529.05
2022-08-28T01:13:49.714Z,528.13
2022-08-28T01:16:19.231Z,525.17
2022-08-28T01:18:46.879Z,523.38
2022-08-28T01:21:22.258Z,526.47
2022-08-28T01:24:04.967Z,530.88
2022-08-28T01:26:32.371Z,530.75
2022-08-28T01:29:00.685Z,534.50
2022-08-28T01:31:31.036Z,533.53
2022-08-28T01:33:59.292Z,532.22
2022-08-28T01:36:26.422Z,531.77
2022-08-28T01:38:58.994Z,530.92
2022-08-28T01:41:25.686Z,526.22
2022-08-28T01:43:53.805Z,527.17
2022-08-28T01:46:21.014Z,528.28
2022-08-28T01:48:48.232Z,526.70
2022-08-28T01:51:15.157Z,528.92
2022-08-28T01:53:45.006Z,526.35
2022-08-28T01:56:15.090Z,527.53
2022-08-28T01:58:42.227Z,528.60
2022-08-28T02:01:11.152Z,526.95
2022-08-28T02:03:38.674Z,531.35
2022-08-28T02:06:06.072Z,532.83
2022-08-28T02:08:35.320Z,532.03
2022-08-28T02:11:02.290Z,531.60
2022-08-28T02:13:28.987Z,531.08
2022-08-28T02:15:57.022Z,533.10
2022-08-28T02:18:26.074Z,534.25
2022-08-28T02:20:52.778Z,534.10
2022-08-28T02:23:19.466Z,536.92
2022-08-28T02:25:47.688Z,534.60
2022-08-28T02:28:17.658Z,537.70
2022-08-28T02:30:44.727Z,534.97
2022-08-28T02:33:11.418Z,536.22
2022-08-28T02:35:40.235Z,540.55
2022-08-28T02:38:07.066Z,540.30
2022-08-28T02:40:33.889Z,540.95
2022-08-28T02:43:00.578Z,539.70
2022-08-28T02:45:30.210Z,537.03
2022-08-28T02:47:57.352Z,536.90
2022-08-28T02:50:24.758Z,536.80
2022-08-28T02:52:51.901Z,538.33
2022-08-28T02:55:19.738Z,528.17
2022-08-28T02:57:47.718Z,526.42
2022-08-28T03:00:19.906Z,525.47
2022-08-28T03:02:47.314Z,522.65
2022-08-28T03:05:17.326Z,523.58
2022-08-28T03:07:44.216Z,526.10
2022-08-28T03:10:11.319Z,523.55
2022-08-28T03:12:38.281Z,528.20
2022-08-28T03:15:07.516Z,528.17
2022-08-28T03:17:35.051Z,502.27
2022-08-28T03:20:01.742Z,524.75
2022-08-28T03:22:46.861Z,523.97
2022-08-28T03:25:13.616Z,529.60
2022-08-28T03:27:40.243Z,528.90
2022-08-28T03:30:07.950Z,528.67
2022-08-28T03:32:35.228Z,535.88
2022-08-28T03:35:03.316Z,536.30
2022-08-28T03:37:32.740Z,534.40
2022-08-28T03:40:00.640Z,541.78
2022-08-28T03:42:27.397Z,540.10
2022-08-28T03:44:54.445Z,541.53
2022-08-28T03:47:21.063Z,539.92
2022-08-28T03:49:53.658Z,543.58
2022-08-28T03:52:20.591Z,543.20
2022-08-28T03:54:48.062Z,542.22
2022-08-28T03:57:22.392Z,540.78
2022-08-28T03:59:51.415Z,540.45
2022-08-28T04:02:20.423Z,548.53
2022-08-28T04:04:48.899Z,546.10
2022-08-28T04:07:16.136Z,550.65
2022-08-28T04:09:43.080Z,543.80
2022-08-28T04:12:10.293Z,542.50
2022-08-28T04:14:37.446Z,541.72
2022-08-28T04:17:05.494Z,539.95
2022-08-28T04:19:34.141Z,540.83
2022-08-28T04:22:01.264Z,535.28
2022-08-28T04:24:27.986Z,536.05
2022-08-28T04:26:54.682Z,535.97
2022-08-28T04:29:22.947Z,537.45
2022-08-28T04:31:50.416Z,535.88
2022-08-28T04:34:17.928Z,537.92
2022-08-28T04:36:44.877Z,537.28
2022-08-28T04:39:11.781Z,538.33
2022-08-28T04:41:38.789Z,535.10
2022-08-28T04:44:06.493Z,530.30
2022-08-28T04:46:33.325Z,534.08
2022-08-28T04:49:00.693Z,532.55
2022-08-28T04:51:28.401Z,529.10
2022-08-28T04:53:55.135Z,525.28
2022-08-28T04:56:21.836Z,525.33
2022-08-28T04:58:48.501Z,524.65
2022-08-28T05:01:21.049Z,528.13
2022-08-28T05:03:52.658Z,531.92
2022-08-28T05:06:19.300Z,535.72
2022-08-28T05:08:48.028Z,530.85
2022-08-28T05:11:33.762Z,529.35
2022-08-28T05:14:11.577Z,515.67
2022-08-28T05:16:46.567Z,514.15
2022-08-28T05:19:14.731Z,517.03
2022-08-28T05:21:42.590Z,509.75
2022-08-28T05:24:09.880Z,515.08
2022-08-28T05:26:38.953Z,510.63
2022-08-28T05:29:08.023Z,516.40
2022-08-28T05:31:35.053Z,513.20
2022-08-28T05:34:02.964Z,515.63
2022-08-28T05:36:34.983Z,521.45
2022-08-28T05:39:05.287Z,511.42
2022-08-28T05:41:34.344Z,508.17
2022-08-28T05:44:04.714Z,517.65
2022-08-28T05:46:31.946Z,520.90
2022-08-28T05:49:00.440Z,522.72
2022-08-28T05:51:28.078Z,516.63
2022-08-28T05:53:57.555Z,517.90
2022-08-28T05:56:29.624Z,509.35
2022-08-28T05:58:57.632Z,515.28
2022-08-28T06:01:33.621Z,514.08
2022-08-28T06:04:02.528Z,521.65
2022-08-28T06:06:34.288Z,516.28
2022-08-28T06:09:11.748Z,523.08
2022-08-28T06:11:40.468Z,530.17
2022-08-28T06:14:13.598Z,524.90
2022-08-28T06:16:47.220Z,523.60
2022-08-28T06:19:14.430Z,531.25
2022-08-28T06:21:41.947Z,525.42
2022-08-28T06:24:10.822Z,525.30
2022-08-28T06:26:38.109Z,508.92
2022-08-28T06:29:08.535Z,525.97
2022-08-28T06:31:35.811Z,513.88
2022-08-28T06:34:04.508Z,513.28
2022-08-28T06:36:33.787Z,514.47
2022-08-28T06:39:02.719Z,511.73
2022-08-28T06:41:34.605Z,510.10
2022-08-28T06:44:02.930Z,509.90
2022-08-28T06:46:30.516Z,508.92
2022-08-28T06:48:57.338Z,508.77
2022-08-28T06:51:25.061Z,510.63
2022-08-28T06:53:52.470Z,505.65
2022-08-28T06:56:26.005Z,513.28
2022-08-28T06:58:58.075Z,509.05
2022-08-28T07:01:31.472Z,504.55
2022-08-28T07:04:08.612Z,502.52
2022-08-28T07:06:38.071Z,506.30
2022-08-28T07:09:07.195Z,499.60
2022-08-28T07:11:37.319Z,494.02
2022-08-28T07:14:04.827Z,497.52
2022-08-28T07:16:35.035Z,483.98
2022-08-28T07:19:04.767Z,483.70
2022-08-28T07:21:38.761Z,469.58
2022-08-28T07:24:10.439Z,475.75
2022-08-28T07:26:40.813Z,439.42
2022-08-28T07:29:10.867Z,469.20
2022-08-28T07:31:44.046Z,466.73
2022-08-28T07:34:13.515Z,453.95
2022-08-28T07:36:41.099Z,456.50
2022-08-28T07:39:09.044Z,465.73
2022-08-28T07:41:39.093Z,453.80
2022-08-28T07:44:26.857Z,464.67
2022-08-28T07:46:55.911Z,461.60
2022-08-28T07:49:23.542Z,452.42
2022-08-28T07:51:56.836Z,429.08
2022-08-28T07:54:23.856Z,434.40
2022-08-28T07:56:50.984Z,445.13
2022-08-28T07:59:19.402Z,427.07
2022-08-28T08:01:49.081Z,426.77
2022-08-28T08:04:16.612Z,412.80
2022-08-28T08:06:44.927Z,411.77
2022-08-28T08:09:17.996Z,409.73
2022-08-28T08:11:45.059Z,403.92
2022-08-28T08:14:15.813Z,390.88
2022-08-28T08:16:44.860Z,368.02
2022-08-28T08:19:20.291Z,353.42
2022-08-28T08:21:53.300Z,354.40
2022-08-28T08:24:26.684Z,355.50
2022-08-28T08:27:00.258Z,369.83
2022-08-28T08:29:31.419Z,354.13
2022-08-28T08:32:06.866Z,373.70
2022-08-28T08:34:36.716Z,367.20
2022-08-28T08:37:05.469Z,349.63
2022-08-28T08:39:33.839Z,343.33
2022-08-28T08:42:04.192Z,346.45
2022-08-28T08:44:40.828Z,347.40
2022-08-28T08:47:19.434Z,339.45
2022-08-28T08:49:57.112Z,329.02
2022-08-28T08:52:38.808Z,320.20
2022-08-28T08:55:23.066Z,329.90
2022-08-28T08:57:59.370Z,324.80
2022-08-28T09:00:26.575Z,349.35
2022-08-28T09:03:09.481Z,350.08
2022-08-28T09:05:46.699Z,352.40
2022-08-28T09:08:25.198Z,365.42
2022-08-28T09:11:00.765Z,358.40
2022-08-28T09:13:51.630Z,368.23
2022-08-28T09:16:29.346Z,362.90
2022-08-28T09:18:58.290Z,368.02
2022-08-28T09:21:29.392Z,373.17
2022-08-28T09:23:57.598Z,371.13
2022-08-28T09:26:25.471Z,371.75
2022-08-28T09:29:20.768Z,373.80
2022-08-28T09:31:50.425Z,355.80
2022-08-28T09:34:27.678Z,345.63
2022-08-28T09:36:56.334Z,346.58
2022-08-28T09:39:30.576Z,361.73
2022-08-28T09:42:40.896Z,366.30
2022-08-28T09:45:21.416Z,356.80
2022-08-28T09:47:56.673Z,365.10
2022-08-28T09:50:31.327Z,356.25
2022-08-28T09:53:08.831Z,372.95
2022-08-28T09:56:25.050Z,367.40
2022-08-28T09:59:02.846Z,372.57
2022-08-28T10:01:45.183Z,388.75
2022-08-28T10:04:20.891Z,395.75
2022-08-28T10:07:00.685Z,389.48
2022-08-28T10:09:46.845Z,392.02
2022-08-28T10:12:35.961Z,401.52
2022-08-28T10:15:30.651Z,385.52
2022-08-28T10:18:21.498Z,364.88
2022-08-28T10:21:36.015Z,370.33
2022-08-28T10:24:28.731Z,332.42
2022-08-28T10:27:21.346Z,310.02
2022-08-28T10:30:20.750Z,332.95
2022-08-28T10:33:11.902Z,346.87
2022-08-28T10:36:03.987Z,356.02
2022-08-28T10:38:30.827Z,339.45
2022-08-28T10:41:35.733Z,336.63
2022-08-28T10:44:05.316Z,340.42
2022-08-28T10:46:42.570Z,340.58
2022-08-28T10:49:30.034Z,315.92
2022-08-28T10:52:05.207Z,345.98
2022-08-28T10:54:53.203Z,336.67
2022-08-28T10:57:24.229Z,319.85
2022-08-28T10:59:54.069Z,336.33
2022-08-28T11:02:24.745Z,347.70
2022-08-28T11:04:58.208Z,352.92
2022-08-28T11:07:54.525Z,356.95
2022-08-28T11:10:23.745Z,365.77
2022-08-28T11:12:52.598Z,369.08
2022-08-28T11:15:36.456Z,369.85
2022-08-28T11:18:16.056Z,379.33
2022-08-28T11:21:09.963Z,369.23
2022-08-28T11:23:43.510Z,376.30
2022-08-28T11:26:14.746Z,380.20
2022-08-28T11:28:47.533Z,374.52
2022-08-28T11:31:14.257Z,384.67
2022-08-28T11:33:56.341Z,376.52
2022-08-28T11:36:23.001Z,395.45
2022-08-28T11:38:52.286Z,379.57
2022-08-28T11:41:22.414Z,378.85
2022-08-28T11:43:52.471Z,368.95
2022-08-28T11:46:33.784Z,365.73
2022-08-28T11:49:03.620Z,364.17
2022-08-28T11:51:48.686Z,357.67
2022-08-28T11:54:50.689Z,357.60
2022-08-28T11:57:20.280Z,356.40
2022-08-28T11:59:55.906Z,364.95
2022-08-28T12:02:46.965Z,348.50
2022-08-28T12:05:16.774Z,346.60
2022-08-28T12:07:51.396Z,330.92
2022-08-28T12:10:27.468Z,322.30
2022-08-28T12:13:39.015Z,336.52
2022-08-28T12:16:07.642Z,325.50
2022-08-28T12:18:59.070Z,312.58
2022-08-28T12:21:28.833Z,278.58
2022-08-28T12:24:05.364Z,287.38
2022-08-28T12:26:39.920Z,285.63
2022-08-28T12:29:34.878Z,290.70
2022-08-28T12:32:18.639Z,294.75
2022-08-28T12:34:53.140Z,292.83
2022-08-28T12:37:24.190Z,306.40
2022-08-28T12:39:51.783Z,296.10
2022-08-28T12:42:20.247Z,313.52
2022-08-28T12:44:51.672Z,311.03
2022-08-28T12:47:22.844Z,324.77
2022-08-28T12:49:49.690Z,330.50
2022-08-28T12:52:21.037Z,335.65
2022-08-28T12:54:50.284Z,342.47
2022-08-28T12:57:20.515Z,334.92
2022-08-28T12:59:50.419Z,336.52
2022-08-28T13:02:34.224Z,316.40
2022-08-28T13:05:09.862Z,315.17
2022-08-28T13:07:49.610Z,302.73
2022-08-28T13:10:21.563Z,298.05
2022-08-28T13:13:05.870Z,276.87
2022-08-28T13:15:45.938Z,265.58
2022-08-28T13:18:44.459Z,277.75
2022-08-28T13:21:17.293Z,285.53
2022-08-28T13:24:01.704Z,296.95
2022-08-28T13:26:33.827Z,344.55
2022-08-28T13:29:26.880Z,354.92
2022-08-28T13:32:01.983Z,338.52
2022-08-28T13:34:31.518Z,325.95
2022-08-28T13:37:20.198Z,346.40
2022-08-28T13:39:47.750Z,307.83
2022-08-28T13:42:17.966Z,297.77
2022-08-28T13:44:56.767Z,280.05
2022-08-28T13:47:23.433Z,294.87
2022-08-28T13:49:50.126Z,285.00
2022-08-28T13:52:19.345Z,298.35
2022-08-28T13:54:46.843Z,295.83
2022-08-28T13:57:14.586Z,297.13
2022-08-28T13:59:41.776Z,311.00
2022-08-28T14:02:31.679Z,310.70
2022-08-28T14:04:58.720Z,330.83
2022-08-28T14:07:25.478Z,310.98
2022-08-28T14:09:56.286Z,294.65
2022-08-28T14:12:33.028Z,276.50
2022-08-28T14:15:03.489Z,283.77
2022-08-28T14:17:30.220Z,296.08
2022-08-28T14:19:58.872Z,272.00
2022-08-28T14:22:25.717Z,282.40
2022-08-28T14:24:55.973Z,277.08
2022-08-28T14:27:22.848Z,274.60
2022-08-28T14:29:49.629Z,311.90
2022-08-28T14:32:25.052Z,271.05
2022-08-28T14:34:52.986Z,280.23
2022-08-28T14:37:20.493Z,227.63
2022-08-28T14:39:48.279Z,222.48
2022-08-28T14:42:15.094Z,265.23
2022-08-28T14:44:50.510Z,253.40
2022-08-28T14:47:18.282Z,276.10
2022-08-28T14:49:44.986Z,267.90
2022-08-28T14:52:17.697Z,221.73
2022-08-28T14:54:44.464Z,246.15
2022-08-28T14:57:13.768Z,207.65
2022-08-28T14:59:40.843Z,196.30
2022-08-28T15:02:08.195Z,192.75
2022-08-28T15:04:37.855Z,174.00
2022-08-28T15:07:16.770Z,171.07
2022-08-28T15:09:43.821Z,217.20
2022-08-28T15:12:11.487Z,234.23
2022-08-28T15:14:39.578Z,223.63
2022-08-28T15:17:08.000Z,230.40
2022-08-28T15:19:36.990Z,205.52
2022-08-28T15:22:06.419Z,223.77
2022-08-28T15:24:34.611Z,226.90
2022-08-28T15:27:06.511Z,220.18
2022-08-28T15:29:34.278Z,224.68
2022-08-28T15:32:00.998Z,246.27
2022-08-28T15:34:28.516Z,253.23
2022-08-28T15:36:56.782Z,254.20
2022-08-28T15:39:44.375Z,236.45
2022-08-28T15:42:11.968Z,246.88
2022-08-28T15:44:39.280Z,228.90
2022-08-28T15:47:07.056Z,220.93
2022-08-28T15:49:43.692Z,221.15
2022-08-28T15:52:19.006Z,242.52
2022-08-28T15:54:46.023Z,225.35
2022-08-28T15:57:12.799Z,238.95
2022-08-28T15:59:48.815Z,266.65
2022-08-28T16:02:23.486Z,293.45
2022-08-28T16:04:53.574Z,326.13
2022-08-28T16:07:22.162Z,357.02
2022-08-28T16:09:49.156Z,357.13
2022-08-28T16:12:17.303Z,387.40
2022-08-28T16:14:44.274Z,427.90
2022-08-28T16:17:11.568Z,412.55
2022-08-28T16:19:40.207Z,404.45
2022-08-28T16:22:07.705Z,395.27
2022-08-28T16:24:34.482Z,412.02
2022-08-28T16:27:02.585Z,415.25
2022-08-28T16:29:34.100Z,385.42
2022-08-28T16:32:02.360Z,387.35
2022-08-28T16:34:32.531Z,372.43
2022-08-28T16:37:00.204Z,381.25
2022-08-28T16:39:27.458Z,360.47
2022-08-28T16:41:56.587Z,341.95
2022-08-28T16:44:28.179Z,370.13
2022-08-28T16:46:55.586Z,372.65
2022-08-28T16:49:25.033Z,366.60
2022-08-28T16:51:51.673Z,359.48
2022-08-28T16:54:19.111Z,330.10
2022-08-28T16:56:46.800Z,323.55
2022-08-28T16:59:17.501Z,344.98
2022-08-28T17:01:44.821Z,353.97
2022-08-28T17:04:12.229Z,362.02
2022-08-28T17:06:39.973Z,341.52
2022-08-28T17:09:06.792Z,363.52
2022-08-28T17:11:33.617Z,364.58
2022-08-28T17:14:00.394Z,360.30
2022-08-28T17:16:29.721Z,359.50
2022-08-28T17:18:56.647Z,351.88
2022-08-28T17:21:42.403Z,345.85
2022-08-28T17:24:12.444Z,366.30
2022-08-28T17:26:40.626Z,365.85
2022-08-28T17:29:07.405Z,368.07
2022-08-28T17:31:41.227Z,383.17
2022-08-28T17:34:08.141Z,367.23
2022-08-28T17:36:39.730Z,369.55
2022-08-28T17:39:13.170Z,365.33
2022-08-28T17:41:40.727Z,370.42
2022-08-28T17:44:08.001Z,372.90
2022-08-28T17:46:38.111Z,390.73
2022-08-28T17:49:06.942Z,401.35
2022-08-28T17:51:43.413Z,407.60
2022-08-28T17:54:16.696Z,368.60
2022-08-28T17:56:43.847Z,340.13
2022-08-28T17:59:11.581Z,298.20
2022-08-28T18:01:42.098Z,261.60
2022-08-28T18:04:09.057Z,235.45
2022-08-28T18:06:36.016Z,252.27
2022-08-28T18:09:03.671Z,261.20
2022-08-28T18:11:30.402Z,249.90
2022-08-28T18:14:00.759Z,256.17
2022-08-28T18:16:31.385Z,253.52
2022-08-28T18:18:59.649Z,294.83
2022-08-28T18:21:26.618Z,316.15
2022-08-28T18:23:53.264Z,327.50
2022-08-28T18:26:20.388Z,338.70
2022-08-28T18:28:48.981Z,358.52
2022-08-28T18:31:21.156Z,346.30
2022-08-28T18:33:56.535Z,353.33
2022-08-28T18:36:34.191Z,369.08
2022-08-28T18:39:02.413Z,369.13
2022-08-28T18:41:41.631Z,354.25
2022-08-28T18:44:11.844Z,372.33
2022-08-28T18:46:41.649Z,357.10
2022-08-28T18:49:14.513Z,368.35
2022-08-28T18:51:47.943Z,354.85
2022-08-28T18:54:22.260Z,352.30
2022-08-28T18:56:50.401Z,347.20
2022-08-28T18:59:23.003Z,346.58
2022-08-28T19:01:49.839Z,340.75
2022-08-28T19:04:22.790Z,339.02
2022-08-28T19:06:54.667Z,374.88
2022-08-28T19:09:32.474Z,344.27
2022-08-28T19:12:01.430Z,357.85
2022-08-28T19:14:30.784Z,368.65
2022-08-28T19:16:57.430Z,366.90
2022-08-28T19:19:24.308Z,357.90
2022-08-28T19:21:54.014Z,360.02
2022-08-28T19:24:22.412Z,371.77
2022-08-28T19:26:49.012Z,368.43
2022-08-28T19:29:17.853Z,373.40
2022-08-28T19:31:44.689Z,366.35
2022-08-28T19:34:16.837Z,381.48
2022-08-28T19:36:55.270Z,360.60
2022-08-28T19:39:28.017Z,378.20
2022-08-28T19:42:00.702Z,384.17
2022-08-28T19:44:29.874Z,379.83
2022-08-28T19:46:56.682Z,372.52
2022-08-28T19:49:26.650Z,380.73
2022-08-28T19:51:55.469Z,363.60
2022-08-28T19:54:25.077Z,379.13
2022-08-28T19:56:52.108Z,364.92
2022-08-28T19:59:18.787Z,359.88
2022-08-28T20:01:46.554Z,388.10
2022-08-28T20:04:17.412Z,380.42
2022-08-28T20:06:45.390Z,399.58
2022-08-28T20:09:13.172Z,395.50
2022-08-28T20:11:42.308Z,406.23
2022-08-28T20:14:09.021Z,427.05
2022-08-28T20:16:38.839Z,394.17
2022-08-28T20:19:07.828Z,413.00
2022-08-28T20:21:37.126Z,397.98
2022-08-28T20:24:12.840Z,414.33
2022-08-28T20:26:40.228Z,388.15
2022-08-28T20:29:08.467Z,397.70
2022-08-28T20:31:40.589Z,401.15
2022-08-28T20:34:09.167Z,403.08
2022-08-28T20:36:38.572Z,382.90
2022-08-28T20:39:07.343Z,407.73
2022-08-28T20:41:35.956Z,408.67
2022-08-28T20:44:07.799Z,418.70
2022-08-28T20:46:40.442Z,432.27
2022-08-28T20:49:09.061Z,419.50
2022-08-28T20:51:53.674Z,436.42
2022-08-28T20:54:22.202Z,437.13
2022-08-28T20:56:50.665Z,467.13
2022-08-28T20:59:18.240Z,466.98
2022-08-28T21:01:45.155Z,464.83
2022-08-28T21:04:14.449Z,458.58
2022-08-28T21:06:41.590Z,432.88
2022-08-28T21:09:08.252Z,443.92
2022-08-28T21:11:34.871Z,420.00
2022-08-28T21:14:05.778Z,397.55
2022-08-28T21:16:35.435Z,425.35
2022-08-28T21:19:16.119Z,413.20
2022-08-28T21:21:46.415Z,431.75
2022-08-28T21:24:16.598Z,410.95
2022-08-28T21:26:45.607Z,409.92
2022-08-28T21:29:17.611Z,434.75
2022-08-28T21:31:45.046Z,427.30
2022-08-28T21:34:12.412Z,433.33
2022-08-28T21:36:46.911Z,420.33
2022-08-28T21:39:17.408Z,419.17
2022-08-28T21:41:44.052Z,422.17
2022-08-28T21:44:10.991Z,422.48
2022-08-28T21:46:37.899Z,426.55
2022-08-28T21:49:04.895Z,408.17
2022-08-28T21:51:33.639Z,439.25
2022-08-28T21:54:00.288Z,428.20
2022-08-28T21:56:27.828Z,430.10
2022-08-28T21:58:55.804Z,413.42
2022-08-28T22:01:26.514Z,419.15
2022-08-28T22:03:55.037Z,414.85
2022-08-28T22:06:23.779Z,411.42
2022-08-28T22:08:54.639Z,430.13
2022-08-28T22:11:25.575Z,453.90
2022-08-28T22:13:54.643Z,468.58
2022-08-28T22:16:21.952Z,423.58
2022-08-28T22:18:48.669Z,408.13
2022-08-28T22:21:35.937Z,413.67
2022-08-28T22:24:03.039Z,410.10
2022-08-28T22:26:29.807Z,419.02
2022-08-28T22:28:57.422Z,434.48
2022-08-28T22:31:25.123Z,442.05
2022-08-28T22:33:52.272Z,438.38
2022-08-28T22:36:20.225Z,455.60
2022-08-28T22:38:53.237Z,452.13
2022-08-28T22:41:20.594Z,448.47
2022-08-28T22:43:51.057Z,456.10
2022-08-28T22:46:18.919Z,444.80
2022-08-28T22:48:46.049Z,450.88
2022-08-28T22:51:15.121Z,454.73
2022-08-28T22:53:43.664Z,446.20
2022-08-28T22:56:11.711Z,454.58
2022-08-28T22:58:41.326Z,451.52
2022-08-28T23:01:12.919Z,471.35
2022-08-28T23:03:41.312Z,482.45
2022-08-28T23:06:08.209Z,455.58
2022-08-28T23:08:35.285Z,457.05
2022-08-28T23:11:02.484Z,459.17
2022-08-28T23:13:31.135Z,457.50
2022-08-28T23:15:58.212Z,452.30
2022-08-28T23:18:27.715Z,449.50
2022-08-28T23:20:55.227Z,453.05
2022-08-28T23:23:23.409Z,448.17
2022-08-28T23:25:50.566Z,453.67
2022-08-28T23:28:17.994Z,453.08
2022-08-28T23:30:48.608Z,475.20
2022-08-28T23:33:23.698Z,481.77
2022-08-28T23:35:52.083Z,456.15
2022-08-28T23:38:18.819Z,454.27
2022-08-28T23:40:46.265Z,450.17
2022-08-28T23:43:12.927Z,446.38
2022-08-28T23:45:42.122Z,446.10
2022-08-28T23:48:09.646Z,443.73
2022-08-28T23:50:40.813Z,450.60
2022-08-28T23:53:08.678Z,458.02
2022-08-28T23:55:36.776Z,466.73
2022-08-28T23:58:04.050Z,468.17
